Aeroporto :
LOGIN :

Iscrizione | Disclaimer

   EN    FR    IT 

 










Sommario :    VFR   VFR Marginale   IFR   IFR Intensivo   IFR Molto Intensivo
Visibilità : 
Base nubi : 
>= 8 km
>= 3000ft
5 / 8 km
1000 / 3000 ft
1500m / 5 km
500 / 1000 ft
800 / 1500m
200 / 500 ft
< 800m
< 200 ft
Simboli :   Temporali  Nebbia  Neve Forte  Precipitazioni Forti  Vento > 20 kt
SIGMETs :   Varie  Temporali  Ghiacco  Turbolenza  Onda orograficha  Ceneri Vulcaniche






- Altitudine del aeroporto : 39 ft


ETNH - Hohn AB

ULTIMO METAR :
  • 262320Z 17006KT 7000 SCT023 BKN033 03/02 Q1010 WHT

METARs OBSOLETI :
  • 262220Z 17006KT 6000 FEW007 SCT020 BKN030 03/02 Q1010 WHT
  • 262120Z 17005KT 6000 FEW005 BKN017 03/02 Q1011 WHT

TAF TAF ETNH
Valido dal 27 a 00 ore il 27 a 12 ore UTC


262320Z 2700/2712 18008KT 7000 NSW SCT005 BKN030
TEMPO 2700/2704 17005KT 9000 NSW SCT010 BKN050
BECMG 2704/2706 19010KT 6000 -RA SCT010 BKN012
TEMPO 2706/2712 21012KT 3000 RADZ SCT005 BKN005 BY ETGL



MetMap, La meteo Aeronautica in un colpo d'occhio ! - Copyright ORBIFLY Dicembre 2007 - Disclaimer

ORBIFLY MET'MAP TEAM :

Programmazione e sviluppo : Alexandra Zaïnal
Concezione : Baudouin d'Aumeries
Aiuto per la programmazione : Marc-Olivier Méhu
Supporto tecnico e logistico : Manuel Goepfert
Aiuto per la traduzione : Arnaldo La Scala

Contatto : metmap@orbifly.com




FONTI E CREDITI :

   NOAA